Arapahoe, Colorado
Current Conditions -  °F | °C
As of 5:53 AM on Sunday 23 Nov 2014 (Local Time) from KITR Reporting Station
Overcast Overcast  
Wind Chill: -1°   Ceiling: 6500
Heat Index:   Visibility: 10mi
Dew Point: -8°   Wind: 26mph
Humidity: 40%   Direction: 350°N
Pressure: 29.63"   Gusts: 38mph
Location:  38.85°N, 102.18°W
Report Text: KITR 231253Z AUTO 35023G33KT 10SM OVC065 05/M08 A2963 RMK AO2 PK WND 34038/1204 SLP026 T00501078
Loading
Personal Weather Stations






























Interactive Weather Map New forecast layout! Learn more

10-Day Weather Forecast

Advertisements
Track Severe Weather on mobile